Time;durP1;ratioP1;P1;durP2;ratioP2;P2;SDS_P1;SDS_P2;PMS_P1;PMS_P2;Temp;Humidity;BMP_temperature;BMP_pressure;BME280_temperature;BME280_humidity;BME280_pressure;Samples;Min_cycle;Max_cycle;Signal;HPM_P1;HPM_P2
2024/02/20 00:02:51;;;;;;;2.36;1.24;;;;;;;6.08;100.00;100858.28;5113884;55;1138931;-77
2024/02/20 00:08:02;;;;;;;1.73;1.10;;;;;;;6.08;100.00;100860.44;5068872;56;1138661;-73
2024/02/20 00:13:04;;;;;;;3.30;1.03;;;;;;;6.07;100.00;100860.05;5048623;56;1138590;-76
2024/02/20 00:18:10;;;;;;;5.27;0.80;;;;;;;6.07;100.00;100860.52;5048382;56;1138708;-74
2024/02/20 00:23:17;;;;;;;6.23;1.00;;;;;;;6.07;100.00;100865.31;5068614;57;1138606;-75
2024/02/20 00:28:22;;;;;;;3.23;1.00;;;;;;;6.06;100.00;100870.17;5048265;56;1138778;-76
2024/02/20 00:33:28;;;;;;;4.10;1.00;;;;;;;6.07;100.00;100868.40;5048093;56;1139048;-78
2024/02/20 00:38:34;;;;;;;2.90;1.17;;;;;;;6.07;100.00;100867.09;5067917;57;1138953;-74
2024/02/20 00:43:39;;;;;;;7.03;0.90;;;;;;;6.04;100.00;100866.78;5015325;57;1138947;-73
2024/02/20 00:48:45;;;;;;;2.47;1.40;;;;;;;6.01;100.00;100869.56;5073613;56;1138647;-72
2024/02/20 00:53:53;;;;;;;9.20;1.32;;;;;;;5.99;100.00;100867.02;5024717;56;1138950;-75
2024/02/20 00:58:59;;;;;;;5.33;1.30;;;;;;;5.97;100.00;100871.95;5043944;57;1138543;-75
2024/02/20 01:04:05;;;;;;;2.23;1.00;;;;;;;5.96;100.00;100867.17;5028209;56;1139124;-74
2024/02/20 01:09:11;;;;;;;3.43;1.77;;;;;;;5.97;100.00;100862.77;5060325;56;1138948;-72
2024/02/20 01:14:26;;;;;;;1.33;0.90;;;;;;;5.94;100.00;100853.77;5055595;56;1139052;-79
2024/02/20 01:19:37;;;;;;;3.60;1.27;;;;;;;5.95;100.00;100849.75;5025524;56;1138618;-74
2024/02/20 01:24:42;;;;;;;3.53;1.77;;;;;;;5.96;100.00;100856.67;5023734;57;1138760;-74
2024/02/20 01:29:48;;;;;;;9.05;2.22;;;;;;;5.98;100.00;100856.59;5039590;56;1138995;-75
2024/02/20 01:34:54;;;;;;;1.37;0.70;;;;;;;5.99;100.00;100847.79;5146818;55;1138866;-76
2024/02/20 01:39:59;;;;;;;2.23;1.27;;;;;;;6.02;100.00;100852.03;5108317;56;1138663;-78
2024/02/20 01:45:06;;;;;;;2.60;0.70;;;;;;;6.04;100.00;100847.09;5139958;55;1138712;-77
2024/02/20 01:50:12;;;;;;;3.87;1.10;;;;;;;6.06;100.00;100850.48;5184000;56;1138797;-75
2024/02/20 01:55:21;;;;;;;1.37;0.70;;;;;;;6.07;100.00;100848.24;5163712;55;1138646;-74
2024/02/20 02:00:27;;;;;;;1.70;0.67;;;;;;;6.09;100.00;100852.10;5071280;56;1139088;-76
2024/02/20 02:05:32;;;;;;;1.40;0.70;;;;;;;6.12;100.00;100855.84;5096493;56;1138843;-76
2024/02/20 02:10:38;;;;;;;2.80;0.70;;;;;;;6.13;100.00;100855.77;5044516;56;1138722;-77
2024/02/20 02:15:43;;;;;;;3.95;1.00;;;;;;;6.13;100.00;100843.95;5025016;57;1142762;-76
2024/02/20 02:20:49;;;;;;;5.33;0.53;;;;;;;6.14;100.00;100846.97;5023984;56;1138556;-76
2024/02/20 02:25:54;;;;;;;4.30;0.85;;;;;;;6.16;100.00;100845.57;5044305;57;1139008;-76
2024/02/20 02:31:00;;;;;;;3.07;0.50;;;;;;;6.16;100.00;100846.42;5024754;57;1139085;-77
2024/02/20 02:36:06;;;;;;;0.80;0.30;;;;;;;6.13;100.00;100843.95;5024514;57;1140077;-74
2024/02/20 02:41:14;;;;;;;3.80;0.70;;;;;;;6.09;100.00;100846.38;5044735;57;1138537;-77
2024/02/20 02:46:20;;;;;;;3.40;0.70;;;;;;;6.07;100.00;100850.02;5093382;56;1138542;-75
2024/02/20 02:51:26;;;;;;;3.90;1.17;;;;;;;6.07;100.00;100846.08;5133765;56;1138708;-75
2024/02/20 02:56:31;;;;;;;1.73;0.70;;;;;;;6.06;100.00;100830.79;5133662;56;1138878;-74
2024/02/20 03:01:37;;;;;;;1.83;0.70;;;;;;;6.04;100.00;100836.58;5112938;56;1138502;-79
2024/02/20 03:06:42;;;;;;;2.43;0.80;;;;;;;6.02;100.00;100825.31;5102617;56;1138999;-76
2024/02/20 03:11:48;;;;;;;2.42;0.85;;;;;;;6.04;100.00;100832.64;5113674;56;1138834;-74
2024/02/20 03:16:53;;;;;;;2.40;0.70;;;;;;;6.05;100.00;100829.56;5133518;56;1138631;-78
2024/02/20 03:21:59;;;;;;;1.20;0.53;;;;;;;6.06;100.00;100822.91;5113163;56;1138674;-75
2024/02/20 03:27:06;;;;;;;4.00;0.67;;;;;;;6.09;100.00;100823.22;5113179;56;1138891;-77
2024/02/20 03:32:12;;;;;;;3.03;0.40;;;;;;;6.10;100.00;100827.55;5133552;56;1138844;-77
2024/02/20 03:37:17;;;;;;;2.23;0.50;;;;;;;6.12;100.00;100822.56;5113355;56;1139099;-77
2024/02/20 03:42:23;;;;;;;4.70;0.60;;;;;;;6.14;100.00;100830.36;5112998;56;1138985;-77
2024/02/20 03:47:28;;;;;;;1.07;0.50;;;;;;;6.14;100.00;100835.14;5135979;56;1138987;-78
2024/02/20 03:52:34;;;;;;;2.13;0.70;;;;;;;6.13;100.00;100827.34;5050888;56;1138982;-74
2024/02/20 03:57:40;;;;;;;1.80;0.90;;;;;;;6.12;100.00;100829.59;5048073;56;1256278;-74
2024/02/20 04:02:46;;;;;;;2.83;1.13;;;;;;;6.12;100.00;100834.84;5131774;56;1138770;-74
2024/02/20 04:07:52;;;;;;;2.70;2.00;;;;;;;6.08;100.00;100834.65;5059084;56;1138893;-75
2024/02/20 04:12:57;;;;;;;1.93;1.17;;;;;;;6.06;100.00;100847.86;5066083;56;1139132;-73
2024/02/20 04:18:03;;;;;;;4.20;1.40;;;;;;;6.05;100.00;100854.03;5102994;56;1138924;-76
2024/02/20 04:23:08;;;;;;;2.17;1.23;;;;;;;6.06;100.00;100857.05;5049027;57;1138701;-76
2024/02/20 04:28:14;;;;;;;5.03;2.10;;;;;;;6.08;100.00;100866.16;5108816;56;1138800;-77
2024/02/20 04:33:20;;;;;;;4.47;2.00;;;;;;;6.08;100.00;100856.97;5153362;56;1138910;-75
2024/02/20 04:38:25;;;;;;;7.97;2.30;;;;;;;6.09;100.00;100866.08;5133541;56;1139231;-77
2024/02/20 04:43:31;;;;;;;11.50;3.10;;;;;;;6.12;100.00;100866.35;5125724;56;1139163;-79
2024/02/20 04:48:36;;;;;;;5.23;2.27;;;;;;;6.15;100.00;100874.92;5052352;57;1140997;-74
2024/02/20 04:53:43;;;;;;;6.15;2.35;;;;;;;6.16;100.00;100875.31;5000383;57;1138750;-78
2024/02/20 04:58:48;;;;;;;6.15;2.05;;;;;;;6.17;100.00;100878.78;4975816;57;1253873;-77
2024/02/20 05:03:54;;;;;;;7.10;2.30;;;;;;;6.14;100.00;100869.28;5087086;55;1220294;-76
2024/02/20 05:08:59;;;;;;;9.50;2.85;;;;;;;6.15;100.00;100876.70;5008321;57;1138765;-75
2024/02/20 05:14:05;;;;;;;6.27;2.73;;;;;;;6.15;100.00;100873.61;4933260;58;1233730;-77
2024/02/20 05:19:10;;;;;;;3.90;2.63;;;;;;;6.18;100.00;100881.80;5111700;55;1191463;-77
2024/02/20 05:24:16;;;;;;;11.20;3.87;;;;;;;6.19;100.00;100879.09;5137437;56;1138711;-78
2024/02/20 05:29:22;;;;;;;8.37;2.73;;;;;;;6.20;100.00;100890.44;5062241;56;1140924;-75
2024/02/20 05:34:27;;;;;;;7.47;2.63;;;;;;;6.21;100.00;100882.48;5133894;55;1138908;-74
2024/02/20 05:39:33;;;;;;;7.87;2.53;;;;;;;6.27;100.00;100887.39;5110592;55;1138972;-76
2024/02/20 05:44:38;;;;;;;8.53;3.20;;;;;;;6.29;100.00;100893.41;5000102;57;1138950;-74
2024/02/20 05:49:44;;;;;;;6.90;2.63;;;;;;;6.32;100.00;100895.03;4992028;56;1139022;-74
2024/02/20 05:54:50;;;;;;;6.10;2.47;;;;;;;6.33;100.00;100897.58;4977838;57;1139110;-74
2024/02/20 05:59:56;;;;;;;8.28;2.77;;;;;;;6.34;100.00;100899.74;5010805;57;1138962;-79
2024/02/20 06:05:01;;;;;;;5.83;2.72;;;;;;;6.33;100.00;100898.04;4948544;57;1138694;-76
2024/02/20 06:10:09;;;;;;;9.33;2.13;;;;;;;6.34;100.00;100911.09;5013735;57;1138549;-77
2024/02/20 06:15:14;;;;;;;7.78;3.47;;;;;;;6.33;100.00;100913.34;5059819;56;1139067;-78
2024/02/20 06:20:20;;;;;;;10.03;2.10;;;;;;;6.34;100.00;100919.44;4988718;56;1139081;-79
2024/02/20 06:25:27;;;;;;;8.07;2.23;;;;;;;6.35;100.00;100926.39;4958022;58;1140678;-77
2024/02/20 06:30:33;;;;;;;8.37;2.83;;;;;;;6.38;100.00;100926.70;4976207;58;1138836;-79
2024/02/20 06:35:38;;;;;;;5.70;2.80;;;;;;;6.41;100.00;100930.48;4961653;57;1138575;-77
2024/02/20 06:40:44;;;;;;;9.57;3.50;;;;;;;6.43;100.00;100936.01;5067413;56;1138556;-82
2024/02/20 06:45:50;;;;;;;9.27;4.13;;;;;;;6.44;100.00;100929.83;5079535;56;1139018;-80
2024/02/20 06:50:55;;;;;;;7.27;3.37;;;;;;;6.46;100.00;100935.00;5098455;55;1138534;-80
2024/02/20 06:56:01;;;;;;;7.07;2.57;;;;;;;6.48;100.00;100939.72;5078875;56;1138817;-81
2024/02/20 07:01:08;;;;;;;6.53;2.95;;;;;;;6.48;100.00;100945.81;5111328;56;1138751;-78
2024/02/20 07:06:13;;;;;;;8.38;3.08;;;;;;;6.50;100.00;100954.47;5129277;56;1138590;-79
2024/02/20 07:11:19;;;;;;;11.07;3.73;;;;;;;6.51;100.00;100950.91;5108996;56;1138599;-78
2024/02/20 07:16:24;;;;;;;7.53;3.27;;;;;;;6.55;100.00;100961.66;5108739;56;1140762;-80
2024/02/20 07:21:30;;;;;;;6.17;2.97;;;;;;;6.54;100.00;100961.27;5129177;56;1138706;-81
2024/02/20 07:26:36;;;;;;;6.43;2.50;;;;;;;6.54;100.00;100952.53;5108809;56;1138910;-80
2024/02/20 07:31:42;;;;;;;6.87;3.25;;;;;;;6.55;100.00;100955.08;5109559;56;1138962;-78
2024/02/20 07:36:48;;;;;;;11.04;3.32;;;;;;;6.56;100.00;100960.72;5075534;56;1138896;-78
2024/02/20 07:41:54;;;;;;;10.18;3.20;;;;;;;6.59;100.00;100963.63;5044214;57;1140722;-81
2024/02/20 07:46:59;;;;;;;8.60;3.50;;;;;;;6.62;100.00;100960.84;5069962;56;1141200;-78
2024/02/20 07:52:07;;;;;;;11.70;4.07;;;;;;;6.67;100.00;100968.87;5078802;56;1138458;-80
2024/02/20 07:57:13;;;;;;;8.52;4.68;;;;;;;6.71;100.00;100965.62;5127170;56;1141036;-80
2024/02/20 08:02:19;;;;;;;9.40;3.80;;;;;;;6.75;100.00;100969.75;5173539;55;1138882;-80
2024/02/20 08:07:25;;;;;;;12.35;4.37;;;;;;;6.77;100.00;100964.41;5201037;55;1138492;-80
2024/02/20 08:12:31;;;;;;;10.73;5.17;;;;;;;6.82;100.00;100963.23;5230652;55;1140728;-78
2024/02/20 08:17:36;;;;;;;12.33;4.70;;;;;;;6.88;100.00;100965.98;5210023;55;1140977;-80
2024/02/20 08:22:43;;;;;;;3.47;3.03;;;;;;;6.92;100.00;100960.94;5210209;55;1140685;-78
2024/02/20 08:27:48;;;;;;;4.00;2.63;;;;;;;6.95;100.00;100961.63;5210700;55;1139028;-79
2024/02/20 08:32:54;;;;;;;9.33;3.30;;;;;;;7.01;100.00;100961.77;5168657;55;1139029;-78
2024/02/20 08:38:00;;;;;;;6.50;3.60;;;;;;;7.01;100.00;100957.35;5109512;55;1138928;-79
2024/02/20 08:43:06;;;;;;;6.90;2.70;;;;;;;7.06;100.00;100963.19;5130979;55;1138689;-80
2024/02/20 08:48:11;;;;;;;4.05;2.80;;;;;;;7.05;100.00;100962.80;5154167;56;1139203;-80
2024/02/20 08:53:17;;;;;;;7.43;2.57;;;;;;;7.04;100.00;100958.94;5133643;56;1138700;-77
2024/02/20 08:58:23;;;;;;;3.90;1.80;;;;;;;7.08;100.00;100965.73;5108042;56;1138339;-79
2024/02/20 09:03:29;;;;;;;5.77;3.00;;;;;;;7.10;100.00;100963.02;5065930;56;1138612;-81
2024/02/20 09:08:35;;;;;;;3.87;2.33;;;;;;;7.13;100.00;100961.07;5094884;56;1138422;-81
2024/02/20 09:13:41;;;;;;;3.40;2.00;;;;;;;7.13;100.00;100961.07;5077999;56;1138492;-81
2024/02/20 09:18:47;;;;;;;4.00;2.20;;;;;;;7.20;100.00;100965.03;5093881;56;1139041;-81
2024/02/20 09:23:52;;;;;;;3.90;2.00;;;;;;;7.25;100.00;100964.31;5078487;57;1138421;-80
2024/02/20 09:28:58;;;;;;;2.50;1.30;;;;;;;7.30;100.00;100970.17;5079219;56;1139192;-79
2024/02/20 09:34:04;;;;;;;2.93;1.60;;;;;;;7.32;100.00;100970.94;5099240;56;1139056;-80
2024/02/20 09:39:09;;;;;;;1.92;1.50;;;;;;;7.36;100.00;100979.48;5076485;56;1139063;-81
2024/02/20 09:44:17;;;;;;;1.57;1.10;;;;;;;7.37;100.00;100983.81;5075863;56;1138538;-79
2024/02/20 09:49:23;;;;;;;3.77;1.40;;;;;;;7.36;100.00;100976.85;5098436;56;1138772;-81
2024/02/20 09:54:33;;;;;;;1.87;1.50;;;;;;;7.38;100.00;100986.36;5074895;56;1138836;-79
2024/02/20 09:59:39;;;;;;;3.00;1.97;;;;;;;7.41;100.00;100990.61;5100691;55;1138553;-78
2024/02/20 10:04:47;;;;;;;1.73;1.40;;;;;;;7.38;100.00;100984.20;5182436;55;1138687;-81
2024/02/20 10:09:54;;;;;;;2.63;1.57;;;;;;;7.37;100.00;100993.02;5142408;56;1138770;-80
2024/02/20 10:15:08;;;;;;;4.90;1.83;;;;;;;7.33;100.00;100994.97;5143014;56;1138883;-82
2024/02/20 10:20:16;;;;;;;5.00;1.10;;;;;;;7.33;100.00;100994.97;5162925;56;1138674;-79
2024/02/20 10:25:22;;;;;;;2.23;1.60;;;;;;;7.37;100.00;100994.34;5084554;56;1138607;-81
2024/02/20 10:30:28;;;;;;;12.73;2.00;;;;;;;7.41;100.00;100999.35;5142883;55;1138939;-80
2024/02/20 10:35:35;;;;;;;2.83;1.30;;;;;;;7.49;100.00;101000.22;5161996;55;1140601;-78
2024/02/20 10:40:41;;;;;;;1.30;1.20;;;;;;;7.56;100.00;101000.72;5127447;55;1138743;-78
2024/02/20 10:45:51;;;;;;;1.97;1.57;;;;;;;7.63;100.00;101000.30;4994910;55;1139161;-78
2024/02/20 10:50:59;;;;;;;2.10;1.32;;;;;;;7.71;100.00;100996.74;5043341;55;1138920;-80
2024/02/20 10:56:07;;;;;;;1.50;1.40;;;;;;;7.73;100.00;100999.29;5068321;55;1138784;-78
2024/02/20 11:01:13;;;;;;;3.92;1.42;;;;;;;7.71;100.00;101004.64;5063281;55;1138754;-81
2024/02/20 11:06:19;;;;;;;1.37;0.73;;;;;;;7.66;100.00;101013.27;5133630;55;1138673;-78
2024/02/20 11:11:25;;;;;;;1.73;1.10;;;;;;;7.64;100.00;101011.65;5159192;55;1139247;-78
2024/02/20 11:16:39;;;;;;;0.90;0.90;;;;;;;7.73;100.00;101001.92;5154401;55;1138941;-80
2024/02/20 11:21:44;;;;;;;3.13;1.60;;;;;;;7.77;100.00;101003.45;5153983;55;1138710;-79
2024/02/20 11:26:54;;;;;;;1.70;1.10;;;;;;;7.80;100.00;101005.02;5133112;55;1138924;-80
2024/02/20 11:32:10;;;;;;;6.37;3.00;;;;;;;7.83;100.00;101011.44;5043563;56;1138916;-82
2024/02/20 11:37:16;;;;;;;10.55;4.33;;;;;;;7.86;100.00;101009.48;5184011;55;1138611;-79
2024/02/20 11:42:21;;;;;;;3.80;1.90;;;;;;;7.93;100.00;101004.25;5185457;55;1140915;-81
2024/02/20 11:47:27;;;;;;;2.13;1.37;;;;;;;8.06;100.00;101007.00;5210919;55;1138918;-80
2024/02/20 11:52:32;;;;;;;5.73;2.20;;;;;;;8.06;100.00;101003.89;5215572;55;1138795;-80
2024/02/20 11:57:44;;;;;;;3.57;2.07;;;;;;;8.09;100.00;101006.83;5216436;55;1138645;-79
2024/02/20 12:02:50;;;;;;;2.60;1.67;;;;;;;8.22;100.00;101000.34;5160114;55;1139127;-81
2024/02/20 12:07:57;;;;;;;2.27;1.10;;;;;;;8.37;100.00;100996.34;5123449;56;1138874;-78
2024/02/20 12:13:22;;;;;;;1.57;1.20;;;;;;;8.49;100.00;101000.02;5126974;56;1138670;-80
2024/02/20 12:18:34;;;;;;;1.97;1.00;;;;;;;8.51;100.00;101002.56;5116991;55;1138882;-80
2024/02/20 12:23:43;;;;;;;2.53;0.70;;;;;;;8.43;100.00;101013.09;5040649;56;1138979;-78
2024/02/20 12:28:48;;;;;;;2.20;1.00;;;;;;;8.29;100.00;101010.88;4958637;57;1138581;-78
2024/02/20 12:33:55;;;;;;;5.20;1.00;;;;;;;8.33;100.00;101004.52;5141991;55;1138655;-80
2024/02/20 12:39:01;;;;;;;2.47;1.65;;;;;;;8.41;100.00;101003.11;5198911;55;1138697;-80
2024/02/20 12:44:06;;;;;;;6.00;1.93;;;;;;;8.33;100.00;101008.48;5219334;55;1138452;-80
2024/02/20 12:49:12;;;;;;;4.45;2.37;;;;;;;8.26;100.00;101015.01;5199267;55;1138543;-80
2024/02/20 12:54:20;;;;;;;1.70;1.60;;;;;;;8.21;100.00;101011.36;5198917;55;1139069;-81
2024/02/20 12:59:27;;;;;;;9.10;2.53;;;;;;;8.20;100.00;101009.66;5225899;54;1138927;-81
2024/02/20 13:04:33;;;;;;;39.67;23.07;;;;;;;8.25;100.00;101015.98;5163266;54;1138949;-81
2024/02/20 13:09:40;;;;;;;15.33;13.27;;;;;;;8.27;100.00;101013.60;5142111;55;1142942;-80
2024/02/20 13:14:51;;;;;;;37.97;27.97;;;;;;;8.31;100.00;101013.80;5212052;54;1142921;-78
2024/02/20 13:19:53;;;;;;;9.93;5.05;;;;;;;8.34;100.00;101011.49;5197864;55;1142747;-79
2024/02/20 13:24:59;;;;;;;4.45;2.30;;;;;;;8.36;100.00;101024.11;5198953;54;1138907;-78
2024/02/20 13:30:06;;;;;;;14.18;7.72;;;;;;;8.39;100.00;101018.19;5230087;55;1138888;-80
2024/02/20 13:35:16;;;;;;;3.90;1.70;;;;;;;8.35;100.00;101023.27;5198341;55;1140891;-80
2024/02/20 13:40:21;;;;;;;7.15;2.15;;;;;;;8.30;100.00;101027.92;5198967;55;1138493;-81
2024/02/20 13:45:27;;;;;;;4.00;2.00;;;;;;;8.33;100.00;101024.29;5219214;55;1138698;-78
2024/02/20 13:50:33;;;;;;;5.53;2.47;;;;;;;8.37;100.00;101027.98;5199069;55;1138592;-79
2024/02/20 13:55:51;;;;;;;8.27;4.43;;;;;;;8.36;100.00;101039.45;5198929;55;1138749;-81
2024/02/20 14:00:53;;;;;;;9.03;4.80;;;;;;;8.30;100.00;101038.93;5220366;54;1138960;-78
2024/02/20 14:05:58;;;;;;;9.47;4.73;;;;;;;8.17;100.00;101041.45;5138801;56;1139037;-79
2024/02/20 14:11:07;;;;;;;8.23;4.30;;;;;;;8.02;100.00;101050.25;5143021;55;1138558;-81
2024/02/20 14:16:17;;;;;;;9.13;4.60;;;;;;;7.96;100.00;101058.50;5134670;55;1138965;-81
2024/02/20 14:21:25;;;;;;;3.90;2.67;;;;;;;7.87;100.00;101071.75;5172043;55;1138640;-79
2024/02/20 14:26:30;;;;;;;5.57;3.60;;;;;;;7.78;100.00;101076.70;5132132;54;1138667;-78
2024/02/20 14:31:36;;;;;;;7.70;3.97;;;;;;;7.67;100.00;101083.41;5134136;55;1138495;-78
2024/02/20 14:36:41;;;;;;;14.57;6.97;;;;;;;7.62;100.00;101089.42;5153800;55;1138555;-78
2024/02/20 14:41:49;;;;;;;14.17;8.27;;;;;;;7.60;100.00;101101.81;5134193;55;1141024;-79
2024/02/20 14:46:55;;;;;;;102.30;54.80;;;;;;;7.61;100.00;101098.25;5134032;55;1141078;-80
2024/02/20 14:52:01;;;;;;;405.27;266.40;;;;;;;7.61;100.00;101107.47;5133707;55;1145328;-82
2024/02/20 14:57:07;;;;;;;46.07;32.67;;;;;;;7.59;100.00;101113.28;5154065;55;1146821;-79
2024/02/20 15:02:12;;;;;;;63.52;29.10;;;;;;;7.56;100.00;101115.22;5172157;54;1142914;-78
2024/02/20 15:07:18;;;;;;;153.37;48.27;;;;;;;7.49;100.00;101130.95;5189330;55;1142991;-78
2024/02/20 15:12:23;;;;;;;36.75;14.07;;;;;;;7.45;100.00;101139.52;5196969;55;1144964;-78
2024/02/20 15:17:29;;;;;;;8.47;4.20;;;;;;;7.41;100.00;101140.61;5168789;55;1142685;-78
2024/02/20 15:22:37;;;;;;;22.60;9.67;;;;;;;7.35;100.00;101148.36;5169537;55;1138942;-78
2024/02/20 15:27:48;;;;;;;20.63;9.47;;;;;;;7.25;100.00;101159.00;5189737;55;1140778;-80
2024/02/20 15:32:50;;;;;;;20.97;7.47;;;;;;;6.99;100.00;101172.69;5167850;55;1140770;-81
2024/02/20 15:37:56;;;;;;;8.73;2.75;;;;;;;6.72;100.00;101175.44;5168851;56;1140980;-78
2024/02/20 15:43:02;;;;;;;19.77;4.60;;;;;;;6.48;100.00;101175.73;5189714;56;1139009;-78
2024/02/20 15:48:08;;;;;;;17.10;6.75;;;;;;;6.37;100.00;101175.43;5171063;55;1140672;-80
2024/02/20 15:53:19;;;;;;;15.85;4.42;;;;;;;6.31;100.00;101180.51;5153425;55;1140885;-80
2024/02/20 15:58:25;;;;;;;17.77;5.33;;;;;;;6.31;100.00;101191.48;5189706;55;1140602;-81
2024/02/20 16:03:30;;;;;;;18.10;7.33;;;;;;;6.28;100.00;101185.91;5114834;55;1140886;-81
2024/02/20 16:08:36;;;;;;;17.40;6.80;;;;;;;6.29;100.00;101197.27;5084061;56;1140711;-80
2024/02/20 16:13:42;;;;;;;14.10;5.30;;;;;;;6.29;100.00;101198.58;5118340;55;1140968;-81
2024/02/20 16:18:48;;;;;;;10.53;5.45;;;;;;;6.32;100.00;101200.60;5113571;56;1140888;-79
2024/02/20 16:23:54;;;;;;;13.77;6.20;;;;;;;6.32;100.00;101204.55;5113681;55;1140624;-78
2024/02/20 16:28:59;;;;;;;23.67;9.80;;;;;;;6.31;100.00;101197.59;5110441;55;1141096;-81
2024/02/20 16:34:05;;;;;;;19.53;6.87;;;;;;;6.34;100.00;101194.81;5133444;55;1140775;-79
2024/02/20 16:39:11;;;;;;;11.33;4.13;;;;;;;6.35;100.00;101207.03;5114114;55;1140893;-79
2024/02/20 16:44:16;;;;;;;16.03;4.50;;;;;;;6.33;100.00;101215.91;5131105;55;1146138;-81
2024/02/20 16:49:22;;;;;;;12.40;4.60;;;;;;;6.27;100.00;101232.80;5158460;55;1141043;-79
2024/02/20 16:54:29;;;;;;;13.67;5.20;;;;;;;6.23;100.00;101235.21;5188616;55;1141200;-77
2024/02/20 16:59:35;;;;;;;18.57;6.10;;;;;;;6.19;100.00;101244.16;5261990;54;1141181;-80
2024/02/20 17:04:41;;;;;;;25.30;5.70;;;;;;;6.18;100.00;101244.22;5232704;55;1140723;-79
2024/02/20 17:09:49;;;;;;;13.30;4.80;;;;;;;6.15;100.00;101245.22;5128356;55;1141037;-80
2024/02/20 17:14:54;;;;;;;12.77;4.70;;;;;;;6.14;100.00;101252.70;5131532;55;1140758;-80
2024/02/20 17:20:00;;;;;;;12.40;3.60;;;;;;;6.10;100.00;101250.32;5121844;55;1141115;-84
2024/02/20 17:25:07;;;;;;;9.67;3.07;;;;;;;6.04;100.00;101252.77;5181521;55;1141215;-83
2024/02/20 17:30:14;;;;;;;8.87;2.53;;;;;;;5.98;100.00;101245.16;5123001;56;1139039;-80
2024/02/20 17:35:19;;;;;;;12.43;3.33;;;;;;;5.97;100.00;101242.14;5135847;55;1138899;-80
2024/02/20 17:40:25;;;;;;;10.40;2.40;;;;;;;5.94;100.00;101247.10;5143109;56;1141024;-79
2024/02/20 17:45:30;;;;;;;19.47;5.10;;;;;;;5.87;100.00;101243.02;5122933;55;1140819;-81
2024/02/20 17:50:36;;;;;;;10.13;2.53;;;;;;;5.86;100.00;101243.94;5122537;55;1140890;-80
2024/02/20 17:55:42;;;;;;;17.73;5.37;;;;;;;5.84;100.00;101241.84;5133889;55;1140882;-82
2024/02/20 18:00:47;;;;;;;25.80;6.23;;;;;;;5.87;100.00;101241.70;5142586;55;1140621;-81
2024/02/20 18:05:53;;;;;;;12.47;3.13;;;;;;;5.85;100.00;101242.69;5150720;54;1140814;-80
2024/02/20 18:10:58;;;;;;;34.53;9.33;;;;;;;5.82;100.00;101240.20;5158509;55;1140776;-79
2024/02/20 18:16:04;;;;;;;23.30;7.57;;;;;;;5.77;100.00;101239.58;5168664;55;1140760;-81
2024/02/20 18:21:11;;;;;;;22.27;5.70;;;;;;;5.74;100.00;101227.45;5135731;55;1140840;-82
2024/02/20 18:26:18;;;;;;;26.17;7.37;;;;;;;5.75;100.00;101231.77;5113802;55;1140756;-81
2024/02/20 18:31:25;;;;;;;17.27;5.93;;;;;;;5.72;100.00;101232.38;5133766;55;1140684;-81
2024/02/20 18:36:31;;;;;;;24.27;7.30;;;;;;;5.71;100.00;101232.83;5114382;55;1140687;-81
2024/02/20 18:41:36;;;;;;;14.57;6.00;;;;;;;5.70;100.00;101233.75;5114527;55;1141162;-82
2024/02/20 18:46:48;;;;;;;42.67;7.92;;;;;;;5.66;100.00;101240.05;5133389;56;1140852;-79
2024/02/20 18:51:49;;;;;;;12.70;4.60;;;;;;;5.65;100.00;101241.00;5175942;55;1140749;-80
2024/02/20 18:56:55;;;;;;;19.20;7.10;;;;;;;5.62;100.00;101241.98;5155148;55;1140682;-80
2024/02/20 19:02:00;;;;;;;19.47;5.47;;;;;;;5.66;100.00;101235.66;5129996;55;1140832;-80
2024/02/20 19:07:06;;;;;;;12.40;4.70;;;;;;;5.68;100.00;101232.11;5079397;56;1140818;-77
2024/02/20 19:12:12;;;;;;;18.40;5.00;;;;;;;5.71;100.00;101237.23;5049751;56;1140912;-82
2024/02/20 19:17:18;;;;;;;20.83;5.47;;;;;;;5.72;100.00;101234.53;5130023;56;1140913;-80
2024/02/20 19:22:24;;;;;;;52.60;14.37;;;;;;;5.71;100.00;101227.58;5077639;56;1140763;-80
2024/02/20 19:27:30;;;;;;;35.28;10.40;;;;;;;5.71;100.00;101223.64;5037692;56;1142852;-79
2024/02/20 19:32:35;;;;;;;21.97;4.93;;;;;;;5.77;100.00;101227.77;5043834;56;1142880;-83
2024/02/20 19:37:41;;;;;;;22.83;7.27;;;;;;;5.77;100.00;101228.62;5060588;55;1140734;-81
2024/02/20 19:42:47;;;;;;;36.67;11.53;;;;;;;5.78;100.00;101225.08;5092992;55;1140728;-80
2024/02/20 19:47:52;;;;;;;16.37;6.42;;;;;;;5.79;100.00;101227.24;5059248;56;1142967;-80
2024/02/20 19:52:58;;;;;;;19.03;5.03;;;;;;;5.79;100.00;101225.94;5098123;56;1140746;-81
2024/02/20 19:58:04;;;;;;;15.30;5.43;;;;;;;5.80;100.00;101227.63;5093004;56;1140972;-79
2024/02/20 20:03:10;;;;;;;31.80;11.00;;;;;;;5.78;100.00;101228.16;5059564;56;1141189;-80
2024/02/20 20:08:15;;;;;;;22.93;5.60;;;;;;;5.77;100.00;101227.31;5040097;56;1146248;-83
2024/02/20 20:13:21;;;;;;;17.30;5.42;;;;;;;5.79;100.00;101223.30;5023782;56;1140956;-80
2024/02/20 20:18:28;;;;;;;20.35;4.78;;;;;;;5.82;100.00;101222.67;5043790;56;1141015;-84
2024/02/20 20:23:34;;;;;;;28.37;4.57;;;;;;;5.81;100.00;101228.00;5123287;56;1140715;-79
2024/02/20 20:28:40;;;;;;;15.73;4.40;;;;;;;5.78;100.00;101231.64;5100427;56;1140668;-87
2024/02/20 20:33:45;;;;;;;12.73;3.90;;;;;;;5.77;100.00;101227.31;5049265;56;1141018;-83
2024/02/20 20:38:51;;;;;;;11.83;3.17;;;;;;;5.78;100.00;101232.95;5051588;56;1141065;-82
2024/02/20 20:44:01;;;;;;;17.43;5.00;;;;;;;5.77;100.00;101222.06;5129637;55;1141042;-84
2024/02/20 20:49:07;;;;;;;12.63;4.03;;;;;;;5.78;100.00;101222.91;5111510;56;1141153;-79
2024/02/20 20:54:13;;;;;;;15.50;4.93;;;;;;;5.79;100.00;101225.47;5059678;55;1141002;-82
2024/02/20 20:59:19;;;;;;;25.65;4.62;;;;;;;5.80;100.00;101214.05;5153508;55;1140992;-82
2024/02/20 21:04:24;;;;;;;22.10;4.62;;;;;;;5.85;100.00;101221.23;5125640;55;1140885;-80
2024/02/20 21:09:33;;;;;;;13.63;4.37;;;;;;;5.88;100.00;101225.06;5133464;55;1140802;-81
2024/02/20 21:14:40;;;;;;;14.77;5.07;;;;;;;5.88;100.00;101229.42;5143550;56;1140864;-85
2024/02/20 21:19:47;;;;;;;14.37;3.90;;;;;;;5.90;100.00;101226.30;5078344;56;1140809;-81
2024/02/20 21:24:53;;;;;;;13.60;5.07;;;;;;;5.91;100.00;101223.61;5105215;55;1140748;-81
2024/02/20 21:29:58;;;;;;;23.35;5.28;;;;;;;5.90;100.00;101214.03;5186585;54;1140750;-83
2024/02/20 21:35:04;;;;;;;14.85;4.08;;;;;;;5.91;100.00;101213.57;5220327;55;1140669;-84
2024/02/20 21:40:10;;;;;;;16.93;4.13;;;;;;;5.91;100.00;101209.63;5141521;55;1140876;-81
2024/02/20 21:45:17;;;;;;;12.20;4.13;;;;;;;5.92;100.00;101208.71;5177402;55;1140723;-85
2024/02/20 21:50:23;;;;;;;20.97;4.05;;;;;;;5.89;100.00;101208.85;5117015;55;1141088;-81
2024/02/20 21:55:28;;;;;;;20.57;5.03;;;;;;;5.87;100.00;101214.14;5110486;55;1141230;-83
2024/02/20 22:00:34;;;;;;;30.70;6.10;;;;;;;5.87;100.00;101218.53;5122868;55;1140598;-83
2024/02/20 22:05:40;;;;;;;24.07;5.17;;;;;;;5.87;100.00;101210.20;4985244;56;1140565;-84
2024/02/20 22:10:46;;;;;;;23.37;4.80;;;;;;;5.90;100.00;101211.87;4942880;57;1140480;-80
2024/02/20 22:15:53;;;;;;;22.07;5.07;;;;;;;5.90;100.00;101211.87;4966461;57;1141101;-80
2024/02/20 22:20:59;;;;;;;26.48;5.30;;;;;;;5.92;100.00;101209.56;4943517;57;1141021;-80
2024/02/20 22:26:05;;;;;;;29.30;6.00;;;;;;;5.93;100.00;101212.58;4884216;58;1141037;-81
2024/02/20 22:31:14;;;;;;;35.17;6.90;;;;;;;5.94;100.00;101215.59;5027109;57;1140906;-83
2024/02/20 22:36:21;;;;;;;26.87;6.15;;;;;;;5.96;100.00;101216.81;5041028;56;1140965;-82
2024/02/20 22:41:27;;;;;;;22.10;5.57;;;;;;;5.95;100.00;101212.05;5068861;56;1140844;-81
2024/02/20 22:46:33;;;;;;;22.83;6.27;;;;;;;5.95;100.00;101202.01;5032396;56;1140856;-86
2024/02/20 22:51:38;;;;;;;26.40;5.30;;;;;;;5.97;100.00;101204.92;4967640;57;1141297;-84
2024/02/20 22:56:45;;;;;;;19.97;5.23;;;;;;;5.97;100.00;101203.61;4983804;57;1140907;-81
2024/02/20 23:01:50;;;;;;;22.57;4.83;;;;;;;5.97;100.00;101198.82;5012475;56;1140936;-82